createdAt,value
2018-02-05T00:01:42.095Z,100306.11
2018-02-05T00:04:09.714Z,100310.70
2018-02-05T00:06:37.284Z,100309.95
2018-02-05T00:09:04.933Z,100310.04
2018-02-05T00:11:32.526Z,100306.87
2018-02-05T00:14:00.092Z,100313.71
2018-02-05T00:16:27.686Z,100317.98
2018-02-05T00:18:55.259Z,100321.83
2018-02-05T00:21:22.799Z,100321.11
2018-02-05T00:23:50.412Z,100327.36
2018-02-05T00:26:17.980Z,100318.02
2018-02-05T00:28:45.644Z,100321.08
2018-02-05T00:31:13.271Z,100327.98
2018-02-05T00:33:40.835Z,100325.31
2018-02-05T00:36:08.633Z,100323.83
2018-02-05T00:38:36.235Z,100320.30
2018-02-05T00:41:03.958Z,100323.04
2018-02-05T00:43:31.550Z,100319.70
2018-02-05T00:45:59.165Z,100324.60
2018-02-05T00:48:26.719Z,100325.43
2018-02-05T00:50:54.280Z,100335.36
2018-02-05T00:53:21.891Z,100335.81
2018-02-05T00:55:49.438Z,100336.63
2018-02-05T00:58:17.018Z,100336.96
2018-02-05T01:00:44.651Z,100340.85
2018-02-05T01:03:12.232Z,100341.68
2018-02-05T01:05:39.817Z,100343.95
2018-02-05T01:08:07.424Z,100342.61
2018-02-05T01:10:34.993Z,100349.27
2018-02-05T01:13:02.548Z,100351.22
2018-02-05T01:15:30.133Z,100351.57
2018-02-05T01:17:57.845Z,100356.77
2018-02-05T01:20:25.427Z,100360.19
2018-02-05T01:22:53.034Z,100366.64
2018-02-05T01:25:20.587Z,100365.31
2018-02-05T01:27:48.142Z,100369.17
2018-02-05T01:30:15.739Z,100372.41
2018-02-05T01:32:43.316Z,100370.89
2018-02-05T01:35:10.900Z,100374.11
2018-02-05T01:37:38.500Z,100378.83
2018-02-05T01:40:06.055Z,100375.93
2018-02-05T01:42:33.629Z,100374.35
2018-02-05T01:45:01.234Z,100373.55
2018-02-05T01:47:28.793Z,100373.60
2018-02-05T01:49:56.365Z,100383.53
2018-02-05T01:52:23.960Z,100376.25
2018-02-05T01:54:51.530Z,100381.30
2018-02-05T01:57:20.917Z,100386.69
2018-02-05T01:59:50.585Z,100386.68
2018-02-05T02:02:19.717Z,100382.04
2018-02-05T02:04:48.985Z,100387.36
2018-02-05T02:07:18.386Z,100381.33
2018-02-05T02:09:47.478Z,100385.36
2018-02-05T02:12:17.252Z,100393.05
2018-02-05T02:14:46.533Z,100391.83
2018-02-05T02:17:15.695Z,100396.70
2018-02-05T02:19:45.026Z,100400.99
2018-02-05T02:22:14.525Z,100399.15
2018-02-05T02:24:42.174Z,100409.14
2018-02-05T02:27:09.899Z,100406.27
2018-02-05T02:29:37.494Z,100400.83
2018-02-05T02:32:05.066Z,100406.59
2018-02-05T02:34:32.636Z,100407.33
2018-02-05T02:37:00.243Z,100404.95
2018-02-05T02:39:28.019Z,100404.11
2018-02-05T02:41:55.598Z,100406.91
2018-02-05T02:44:23.200Z,100405.02
2018-02-05T02:46:50.774Z,100416.27
2018-02-05T02:49:18.344Z,100408.73
2018-02-05T02:51:45.941Z,100408.36
2018-02-05T02:54:13.493Z,100404.55
2018-02-05T02:56:41.065Z,100407.91
2018-02-05T02:59:08.685Z,100410.22
2018-02-05T03:01:36.257Z,100415.59
2018-02-05T03:04:04.025Z,100421.45
2018-02-05T03:06:31.637Z,100424.11
2018-02-05T03:08:59.251Z,100431.69
2018-02-05T03:11:26.832Z,100431.27
2018-02-05T03:13:54.514Z,100436.64
2018-02-05T03:16:22.089Z,100440.94
2018-02-05T03:18:49.661Z,100441.36
2018-02-05T03:21:17.368Z,100444.64
2018-02-05T03:23:44.942Z,100450.39
2018-02-05T03:26:12.512Z,100463.06
2018-02-05T03:28:40.111Z,100467.37
2018-02-05T03:31:07.679Z,100468.88
2018-02-05T03:33:35.461Z,100456.53
2018-02-05T03:36:03.125Z,100456.03
2018-02-05T03:38:30.833Z,100453.19
2018-02-05T03:40:58.649Z,100461.30
2018-02-05T03:43:26.328Z,100460.64
2018-02-05T03:45:53.895Z,100465.09
2018-02-05T03:48:21.471Z,100477.36
2018-02-05T03:50:49.110Z,100472.66
2018-02-05T03:53:16.678Z,100479.58
2018-02-05T03:55:44.267Z,100481.39
2018-02-05T03:58:11.892Z,100471.31
2018-02-05T04:00:39.446Z,100471.25
2018-02-05T04:03:07.016Z,100472.98
2018-02-05T04:05:34.636Z,100481.63
2018-02-05T04:08:02.213Z,100481.83
2018-02-05T04:10:29.800Z,100484.40
2018-02-05T04:12:57.689Z,100488.59
2018-02-05T04:15:25.304Z,100494.68
2018-02-05T04:17:52.975Z,100495.13
2018-02-05T04:20:20.589Z,100499.80
2018-02-05T04:22:48.171Z,100504.15
2018-02-05T04:25:15.734Z,100497.41
2018-02-05T04:27:43.338Z,100503.72
2018-02-05T04:30:10.910Z,100509.83
2018-02-05T04:32:38.480Z,100509.45
2018-02-05T04:35:06.111Z,100518.02
2018-02-05T04:37:33.741Z,100511.09
2018-02-05T04:40:01.323Z,100519.74
2018-02-05T04:42:28.939Z,100521.02
2018-02-05T04:44:56.501Z,100522.88
2018-02-05T04:47:24.158Z,100525.80
2018-02-05T04:49:51.800Z,100526.41
2018-02-05T04:52:19.379Z,100533.39
2018-02-05T04:54:47.099Z,100535.47
2018-02-05T04:57:14.720Z,100541.50
2018-02-05T04:59:42.291Z,100542.07
2018-02-05T05:02:09.874Z,100540.77
2018-02-05T05:04:37.488Z,100545.47
2018-02-05T05:07:05.070Z,100548.80
2018-02-05T05:09:32.650Z,100556.64
2018-02-05T05:12:00.274Z,100555.59
2018-02-05T05:14:27.866Z,100561.59
2018-02-05T05:16:55.458Z,100568.30
2018-02-05T05:19:23.077Z,100577.31
2018-02-05T05:21:50.664Z,100578.23
2018-02-05T05:24:18.248Z,100586.15
2018-02-05T05:26:45.867Z,100585.73
2018-02-05T05:29:13.435Z,100595.70
2018-02-05T05:31:40.999Z,100598.58
2018-02-05T05:34:08.597Z,100601.49
2018-02-05T05:36:36.169Z,100600.81
2018-02-05T05:39:03.789Z,100603.68
2018-02-05T05:41:31.398Z,100599.22
2018-02-05T05:43:59.014Z,100604.73
2018-02-05T05:46:26.591Z,100616.27
2018-02-05T05:48:54.349Z,100615.92
2018-02-05T05:51:21.933Z,100619.40
2018-02-05T05:53:49.499Z,100612.15
2018-02-05T05:56:17.120Z,100618.95
2018-02-05T05:58:44.698Z,100624.02
2018-02-05T06:01:12.270Z,100629.38
2018-02-05T06:03:39.882Z,100632.37
2018-02-05T06:06:07.461Z,100635.77
2018-02-05T06:08:35.014Z,100634.94
2018-02-05T06:11:02.616Z,100642.83
2018-02-05T06:13:30.205Z,100640.81
2018-02-05T06:15:57.879Z,100642.01
2018-02-05T06:18:25.498Z,100643.23
2018-02-05T06:20:53.063Z,100640.25
2018-02-05T06:23:20.690Z,100635.58
2018-02-05T06:25:48.350Z,100632.70
2018-02-05T06:28:16.011Z,100633.52
2018-02-05T06:30:43.676Z,100633.36
2018-02-05T06:33:11.293Z,100626.02
2018-02-05T06:35:38.863Z,100631.34
2018-02-05T06:38:06.442Z,100637.57
2018-02-05T06:40:34.047Z,100641.86
2018-02-05T06:43:01.612Z,100637.89
2018-02-05T06:45:29.208Z,100640.98
2018-02-05T06:47:56.815Z,100645.05
2018-02-05T06:50:36.229Z,100647.08
2018-02-05T06:53:15.418Z,100648.28
2018-02-05T06:55:47.811Z,100649.91
2018-02-05T06:58:15.723Z,100647.26
2018-02-05T07:00:43.476Z,100660.33
2018-02-05T07:03:11.056Z,100656.20
2018-02-05T07:05:38.734Z,100661.70
2018-02-05T07:08:06.339Z,100657.22
2018-02-05T07:10:33.913Z,100656.80
2018-02-05T07:13:01.532Z,100655.02
2018-02-05T07:15:29.128Z,100662.80
2018-02-05T07:17:56.712Z,100665.39
2018-02-05T07:20:24.361Z,100656.98
2018-02-05T07:22:52.099Z,100654.48
2018-02-05T07:25:19.729Z,100645.38
2018-02-05T07:27:47.492Z,100644.65
2018-02-05T07:30:15.250Z,100648.23
2018-02-05T07:32:42.830Z,100647.19
2018-02-05T07:35:10.544Z,100641.14
2018-02-05T07:37:38.120Z,100638.30
2018-02-05T07:40:05.757Z,100643.36
2018-02-05T07:42:33.374Z,100645.35
2018-02-05T07:45:00.973Z,100639.53
2018-02-05T07:47:28.597Z,100641.27
2018-02-05T07:49:56.256Z,100642.62
2018-02-05T07:52:23.857Z,100640.57
2018-02-05T07:54:51.444Z,100645.89
2018-02-05T07:57:19.052Z,100642.52
2018-02-05T07:59:46.624Z,100637.44
2018-02-05T08:02:14.251Z,100640.96
2018-02-05T08:04:41.947Z,100633.34
2018-02-05T08:07:09.524Z,100633.52
2018-02-05T08:09:37.101Z,100631.41
2018-02-05T08:12:04.711Z,100630.48
2018-02-05T08:14:32.292Z,100633.97
2018-02-05T08:16:59.907Z,100638.09
2018-02-05T08:19:27.569Z,100631.07
2018-02-05T08:21:55.135Z,100626.77
2018-02-05T08:24:22.730Z,100620.30
2018-02-05T08:26:50.325Z,100623.20
2018-02-05T08:29:17.902Z,100619.13
2018-02-05T08:31:45.486Z,100622.59
2018-02-05T08:34:13.085Z,100625.72
2018-02-05T08:36:40.670Z,100626.19
2018-02-05T08:39:08.240Z,100630.04
2018-02-05T08:41:35.862Z,100638.38
2018-02-05T08:44:03.456Z,100630.65
2018-02-05T08:46:31.072Z,100624.53
2018-02-05T08:48:58.682Z,100635.61
2018-02-05T08:51:26.267Z,100632.63
2018-02-05T08:53:53.904Z,100630.14
2018-02-05T08:56:21.522Z,100621.84
2018-02-05T08:58:49.097Z,100617.44
2018-02-05T09:01:16.677Z,100624.34
2018-02-05T09:03:44.296Z,100625.61
2018-02-05T09:06:11.881Z,100624.05
2018-02-05T09:08:39.443Z,100628.81
2018-02-05T09:11:07.048Z,100621.55
2018-02-05T09:13:34.630Z,100626.05
2018-02-05T09:16:02.311Z,100615.02
2018-02-05T09:18:29.923Z,100609.36
2018-02-05T09:20:57.517Z,100609.53
2018-02-05T09:23:25.104Z,100610.53
2018-02-05T09:25:52.708Z,100608.06
2018-02-05T09:28:20.282Z,100601.85
2018-02-05T09:30:47.927Z,100593.41
2018-02-05T09:33:15.536Z,100597.66
2018-02-05T09:35:43.109Z,100603.06
2018-02-05T09:38:10.682Z,100604.62
2018-02-05T09:40:38.290Z,100599.42
2018-02-05T09:43:05.877Z,100601.36
2018-02-05T09:48:07.465Z,100589.09
2018-02-05T09:50:35.074Z,100595.20
2018-02-05T09:53:02.730Z,100593.95
2018-02-05T09:55:30.344Z,100591.83
2018-02-05T09:57:57.924Z,100594.24
2018-02-05T10:00:25.508Z,100581.48
2018-02-05T10:02:53.113Z,100578.25
2018-02-05T10:05:20.685Z,100582.67
2018-02-05T10:07:48.277Z,100574.86
2018-02-05T10:10:15.908Z,100574.83
2018-02-05T10:12:43.518Z,100576.44
2018-02-05T10:15:11.098Z,100580.95
2018-02-05T10:17:38.712Z,100569.50
2018-02-05T10:20:06.272Z,100574.19
2018-02-05T10:22:33.832Z,100569.75
2018-02-05T10:25:01.436Z,100564.66
2018-02-05T10:27:28.993Z,100563.48
2018-02-05T10:29:56.573Z,100559.95
2018-02-05T10:32:24.222Z,100556.80
2018-02-05T10:34:51.883Z,100560.77
2018-02-05T10:37:20.750Z,100564.66
2018-02-05T10:39:49.091Z,100552.03
2018-02-05T10:42:18.129Z,100558.44
2018-02-05T10:44:47.420Z,100551.70
2018-02-05T10:47:16.897Z,100567.13
2018-02-05T10:49:47.204Z,100554.28
2018-02-05T10:52:16.429Z,100555.13
2018-02-05T10:54:44.902Z,100556.42
2018-02-05T10:57:13.082Z,100551.84
2018-02-05T10:59:41.357Z,100539.05
2018-02-05T11:02:09.960Z,100543.58
2018-02-05T11:04:38.334Z,100539.90
2018-02-05T11:07:07.010Z,100543.14
2018-02-05T11:09:36.404Z,100525.23
2018-02-05T11:12:05.043Z,100520.88
2018-02-05T11:14:34.143Z,100528.50
2018-02-05T11:17:03.272Z,100520.31
2018-02-05T11:19:32.314Z,100529.81
2018-02-05T11:22:01.486Z,100528.66
2018-02-05T11:24:31.078Z,100532.68
2018-02-05T11:27:00.111Z,100527.71
2018-02-05T11:29:29.079Z,100519.80
2018-02-05T11:31:56.827Z,100527.95
2018-02-05T11:34:24.429Z,100527.67
2018-02-05T11:36:52.001Z,100530.84
2018-02-05T11:39:19.608Z,100525.23
2018-02-05T11:41:47.180Z,100522.86
2018-02-05T11:44:14.750Z,100520.72
2018-02-05T11:46:42.511Z,100524.42
2018-02-05T11:49:10.093Z,100520.72
2018-02-05T11:51:37.695Z,100527.81
2018-02-05T11:54:05.300Z,100523.50
2018-02-05T11:56:33.434Z,100524.48
2018-02-05T11:59:01.019Z,100519.24
2018-02-05T12:01:28.664Z,100514.14
2018-02-05T12:03:56.238Z,100513.98
2018-02-05T12:06:23.817Z,100518.09
2018-02-05T12:08:51.437Z,100514.76
2018-02-05T12:11:19.128Z,100512.83
2018-02-05T12:13:46.690Z,100508.67
2018-02-05T12:16:14.304Z,100512.23
2018-02-05T12:18:41.946Z,100508.94
2018-02-05T12:21:09.633Z,100514.25
2018-02-05T12:23:37.239Z,100506.16
2018-02-05T12:26:04.828Z,100503.47
2018-02-05T12:28:32.395Z,100509.50
2018-02-05T12:31:00.010Z,100490.55
2018-02-05T12:33:27.591Z,100512.52
2018-02-05T12:35:55.154Z,100510.46
2018-02-05T12:38:22.751Z,100509.56
2018-02-05T12:40:51.184Z,100510.30
2018-02-05T12:43:18.754Z,100505.75
2018-02-05T12:45:46.489Z,100508.77
2018-02-05T12:48:14.111Z,100500.75
2018-02-05T12:50:41.689Z,100502.69
2018-02-05T12:53:09.332Z,100499.28
2018-02-05T12:55:36.944Z,100501.25
2018-02-05T12:58:04.561Z,100499.06
2018-02-05T13:03:38.411Z,100483.27
2018-02-05T13:09:08.274Z,100486.03
2018-02-05T13:11:35.880Z,100482.71
2018-02-05T13:14:03.474Z,100476.34
2018-02-05T13:16:31.047Z,100475.02
2018-02-05T13:18:58.639Z,100481.41
2018-02-05T13:21:26.196Z,100482.42
2018-02-05T13:23:53.776Z,100470.89
2018-02-05T13:26:21.403Z,100480.15
2018-02-05T13:28:48.977Z,100477.15
2018-02-05T13:31:16.567Z,100485.05
2018-02-05T13:33:44.213Z,100487.87
2018-02-05T13:36:11.788Z,100479.70
2018-02-05T13:38:39.363Z,100480.11
2018-02-05T13:41:06.977Z,100476.48
2018-02-05T13:43:34.561Z,100473.64
2018-02-05T13:46:02.126Z,100474.17
2018-02-05T13:48:29.743Z,100474.53
2018-02-05T13:50:57.508Z,100473.16
2018-02-05T13:53:25.177Z,100470.29
2018-02-05T13:55:52.776Z,100474.09
2018-02-05T13:58:20.351Z,100474.17
2018-02-05T14:00:47.946Z,100476.02
2018-02-05T14:03:15.550Z,100468.11
2018-02-05T14:05:43.132Z,100471.47
2018-02-05T14:08:10.940Z,100474.02
2018-02-05T14:10:38.597Z,100471.67
2018-02-05T14:13:06.342Z,100476.84
2018-02-05T14:15:34.177Z,100478.21
2018-02-05T14:18:01.836Z,100480.77
2018-02-05T14:20:29.461Z,100478.95
2018-02-05T14:22:57.021Z,100469.09
2018-02-05T14:25:24.694Z,100476.77
2018-02-05T14:27:52.358Z,100481.94
2018-02-05T14:30:19.978Z,100477.09
2018-02-05T14:32:47.614Z,100484.38
2018-02-05T14:35:15.226Z,100486.35
2018-02-05T14:37:42.795Z,100494.25
2018-02-05T14:40:10.411Z,100496.88
2018-02-05T14:42:37.959Z,100505.35
2018-02-05T14:45:05.517Z,100505.45
2018-02-05T14:47:33.124Z,100503.16
2018-02-05T14:50:00.693Z,100506.14
2018-02-05T14:52:28.256Z,100510.12
2018-02-05T14:54:55.860Z,100509.95
2018-02-05T14:57:23.452Z,100511.80
2018-02-05T14:59:51.007Z,100516.20
2018-02-05T15:02:18.665Z,100513.38
2018-02-05T15:04:46.245Z,100514.98
2018-02-05T15:07:13.809Z,100515.97
2018-02-05T15:09:41.474Z,100518.40
2018-02-05T15:12:09.054Z,100526.25
2018-02-05T15:14:36.658Z,100520.16
2018-02-05T15:17:04.257Z,100533.73
2018-02-05T15:19:31.849Z,100534.97
2018-02-05T15:21:59.493Z,100531.06
2018-02-05T15:24:27.136Z,100538.36
2018-02-05T15:26:54.700Z,100541.95
2018-02-05T15:29:22.264Z,100544.23
2018-02-05T15:31:49.883Z,100545.24
2018-02-05T15:34:17.448Z,100550.77
2018-02-05T15:36:45.142Z,100550.38
2018-02-05T15:39:12.761Z,100552.89
2018-02-05T15:41:40.321Z,100558.83
2018-02-05T15:44:07.964Z,100558.34
2018-02-05T15:46:35.586Z,100557.49
2018-02-05T15:49:03.159Z,100561.72
2018-02-05T15:51:30.761Z,100567.28
2018-02-05T15:53:58.370Z,100556.38
2018-02-05T15:56:26.078Z,100552.37
2018-02-05T15:58:53.675Z,100562.22
2018-02-05T16:01:21.300Z,100572.42
2018-02-05T16:03:48.919Z,100559.36
2018-02-05T16:06:16.487Z,100561.98
2018-02-05T16:08:44.108Z,100567.34
2018-02-05T16:11:11.685Z,100579.59
2018-02-05T16:13:39.328Z,100577.80
2018-02-05T16:16:06.976Z,100574.50
2018-02-05T16:18:35.330Z,100580.81
2018-02-05T16:21:02.904Z,100578.32
2018-02-05T16:23:30.533Z,100579.45
2018-02-05T16:25:58.170Z,100584.56
2018-02-05T16:28:25.729Z,100578.63
2018-02-05T16:30:53.346Z,100582.50
2018-02-05T16:33:20.914Z,100578.97
2018-02-05T16:35:48.505Z,100580.84
2018-02-05T16:38:16.142Z,100578.06
2018-02-05T16:40:43.804Z,100573.70
2018-02-05T16:43:13.975Z,100572.25
2018-02-05T16:45:41.946Z,100572.31
2018-02-05T16:48:11.123Z,100575.08
2018-02-05T16:50:38.921Z,100574.07
2018-02-05T16:53:06.537Z,100576.84
2018-02-05T16:55:34.129Z,100578.02
2018-02-05T16:58:01.761Z,100573.86
2018-02-05T17:00:29.408Z,100580.72
2018-02-05T17:02:56.995Z,100580.91
2018-02-05T17:05:24.581Z,100580.11
2018-02-05T17:07:52.181Z,100574.58
2018-02-05T17:10:20.646Z,100575.14
2018-02-05T17:12:48.211Z,100571.06
2018-02-05T17:15:15.835Z,100566.44
2018-02-05T17:17:43.407Z,100566.28
2018-02-05T17:20:11.002Z,100561.84
2018-02-05T17:22:39.498Z,100561.66
2018-02-05T17:25:07.058Z,100566.20
2018-02-05T17:27:34.628Z,100571.21
2018-02-05T17:30:02.227Z,100570.03
2018-02-05T17:32:29.788Z,100564.44
2018-02-05T17:34:57.386Z,100569.20
2018-02-05T17:37:25.123Z,100569.36
2018-02-05T17:39:52.697Z,100566.50
2018-02-05T17:42:20.267Z,100546.06
2018-02-05T17:44:47.869Z,100564.19
2018-02-05T17:47:15.463Z,100570.40
2018-02-05T17:49:43.225Z,100564.19
2018-02-05T17:52:10.824Z,100565.02
2018-02-05T17:54:38.392Z,100563.74
2018-02-05T17:57:05.966Z,100561.67
2018-02-05T17:59:33.547Z,100562.94
2018-02-05T18:02:01.114Z,100564.16
2018-02-05T18:04:28.877Z,100565.97
2018-02-05T18:06:56.484Z,100566.77
2018-02-05T18:09:24.064Z,100562.34
2018-02-05T18:11:51.726Z,100560.53
2018-02-05T18:14:19.317Z,100559.73
2018-02-05T18:16:46.886Z,100558.27
2018-02-05T18:19:14.447Z,100555.85
2018-02-05T18:21:42.054Z,100562.09
2018-02-05T18:24:09.762Z,100565.56
2018-02-05T18:26:37.367Z,100555.41
2018-02-05T18:29:05.043Z,100566.98
2018-02-05T18:31:32.618Z,100566.64
2018-02-05T18:34:00.187Z,100574.91
2018-02-05T18:36:27.829Z,100574.08
2018-02-05T18:38:55.532Z,100572.34
2018-02-05T18:41:23.110Z,100569.02
2018-02-05T18:43:50.748Z,100571.93
2018-02-05T18:46:18.353Z,100575.67
2018-02-05T18:48:45.930Z,100574.30
2018-02-05T18:51:13.537Z,100576.17
2018-02-05T18:53:41.124Z,100579.23
2018-02-05T18:56:08.691Z,100580.97
2018-02-05T18:58:36.439Z,100582.23
2018-02-05T19:01:04.101Z,100584.22
2018-02-05T19:03:31.653Z,100586.94
2018-02-05T19:05:59.250Z,100581.39
2018-02-05T19:08:26.840Z,100578.67
2018-02-05T19:10:54.390Z,100578.34
2018-02-05T19:13:22.013Z,100575.13
2018-02-05T19:15:49.584Z,100576.04
2018-02-05T19:18:17.141Z,100569.84
2018-02-05T19:20:44.765Z,100569.63
2018-02-05T19:23:12.370Z,100571.58
2018-02-05T19:25:40.085Z,100572.59
2018-02-05T19:28:07.724Z,100575.94
2018-02-05T19:30:35.291Z,100585.16
2018-02-05T19:33:02.873Z,100590.45
2018-02-05T19:35:30.471Z,100585.72
2018-02-05T19:37:59.479Z,100584.60
2018-02-05T19:40:27.085Z,100586.20
2018-02-05T19:42:54.740Z,100586.34
2018-02-05T19:45:22.486Z,100581.80
2018-02-05T19:47:50.124Z,100573.18
2018-02-05T19:50:17.699Z,100583.38
2018-02-05T19:52:45.298Z,100587.88
2018-02-05T19:55:12.919Z,100589.28
2018-02-05T19:57:40.485Z,100593.63
2018-02-05T20:00:08.060Z,100590.89
2018-02-05T20:02:35.795Z,100586.94
2018-02-05T20:05:03.360Z,100580.84
2018-02-05T20:07:31.041Z,100580.97
2018-02-05T20:09:58.632Z,100574.55
2018-02-05T20:12:26.192Z,100580.25
2018-02-05T20:14:53.745Z,100581.47
2018-02-05T20:17:21.495Z,100587.16
2018-02-05T20:19:49.074Z,100581.52
2018-02-05T20:22:16.636Z,100584.75
2018-02-05T20:24:44.222Z,100573.30
2018-02-05T20:27:11.785Z,100577.47
2018-02-05T20:29:39.359Z,100578.41
2018-02-05T20:32:06.949Z,100575.18
2018-02-05T20:34:34.513Z,100583.64
2018-02-05T20:37:02.086Z,100564.32
2018-02-05T20:39:29.688Z,100571.78
2018-02-05T20:41:57.314Z,100573.03
2018-02-05T20:44:24.976Z,100572.75
2018-02-05T20:46:52.596Z,100575.87
2018-02-05T20:49:20.155Z,100567.86
2018-02-05T20:51:47.754Z,100569.48
2018-02-05T20:54:15.339Z,100571.63
2018-02-05T20:56:42.903Z,100561.92
2018-02-05T20:59:10.461Z,100555.09
2018-02-05T21:01:38.144Z,100554.54
2018-02-05T21:04:05.734Z,100565.33
2018-02-05T21:06:33.311Z,100567.33
2018-02-05T21:09:00.893Z,100560.61
2018-02-05T21:11:28.445Z,100558.04
2018-02-05T21:13:55.993Z,100556.62
2018-02-05T21:16:23.589Z,100561.69
2018-02-05T21:18:51.147Z,100571.39
2018-02-05T21:21:18.702Z,100568.00
2018-02-05T21:23:46.301Z,100565.53
2018-02-05T21:26:13.851Z,100566.61
2018-02-05T21:28:41.418Z,100569.14
2018-02-05T21:31:08.990Z,100571.02
2018-02-05T21:33:36.543Z,100564.24
2018-02-05T21:36:04.132Z,100567.00
2018-02-05T21:38:31.748Z,100570.57
2018-02-05T21:40:59.351Z,100570.67
2018-02-05T21:43:26.928Z,100562.77
2018-02-05T21:45:54.532Z,100562.70
2018-02-05T21:48:22.134Z,100567.03
2018-02-05T21:50:49.711Z,100569.94
2018-02-05T21:53:17.299Z,100573.16
2018-02-05T21:55:44.892Z,100569.55
2018-02-05T21:58:12.447Z,100562.32
2018-02-05T22:00:40.053Z,100575.53
2018-02-05T22:03:07.657Z,100564.49
2018-02-05T22:05:35.242Z,100570.56
2018-02-05T22:08:02.840Z,100568.70
2018-02-05T22:10:30.400Z,100569.30
2018-02-05T22:12:58.056Z,100568.63
2018-02-05T22:15:25.646Z,100572.33
2018-02-05T22:17:53.213Z,100575.33
2018-02-05T22:20:20.785Z,100581.11
2018-02-05T22:22:48.404Z,100570.28
2018-02-05T22:25:15.970Z,100571.47
2018-02-05T22:27:43.544Z,100569.54
2018-02-05T22:30:11.153Z,100571.14
2018-02-05T22:32:38.718Z,100574.77
2018-02-05T22:35:06.273Z,100568.99
2018-02-05T22:37:33.905Z,100567.81
2018-02-05T22:40:01.459Z,100577.31
2018-02-05T22:42:29.014Z,100570.36
2018-02-05T22:44:56.633Z,100573.95
2018-02-05T22:47:24.184Z,100573.75
2018-02-05T22:49:51.736Z,100573.42
2018-02-05T22:52:19.327Z,100573.75
2018-02-05T22:54:46.889Z,100580.16
2018-02-05T22:57:14.449Z,100576.70
2018-02-05T22:59:42.056Z,100572.61
2018-02-05T23:02:09.621Z,100574.84
2018-02-05T23:04:37.183Z,100583.19
2018-02-05T23:07:04.780Z,100579.90
2018-02-05T23:09:32.347Z,100573.78
2018-02-05T23:11:59.903Z,100572.27
2018-02-05T23:14:27.514Z,100571.37
2018-02-05T23:16:55.696Z,100568.58
2018-02-05T23:19:25.090Z,100567.91
2018-02-05T23:21:52.819Z,100568.94
2018-02-05T23:24:20.369Z,100571.17
2018-02-05T23:26:47.945Z,100571.92
2018-02-05T23:29:15.536Z,100572.14
2018-02-05T23:31:43.096Z,100566.86
2018-02-05T23:34:11.876Z,100568.38
2018-02-05T23:36:39.768Z,100566.52
2018-02-05T23:39:07.334Z,100563.45
2018-02-05T23:41:35.052Z,100559.77
2018-02-05T23:44:02.636Z,100560.86
2018-02-05T23:46:30.332Z,100555.38
2018-02-05T23:48:57.884Z,100556.84
2018-02-05T23:51:25.491Z,100550.73
2018-02-05T23:53:53.050Z,100557.53
2018-02-05T23:56:20.660Z,100554.55
2018-02-05T23:58:48.412Z,100552.33
